Time;durP1;ratioP1;P1;durP2;ratioP2;P2;SDS_P1;SDS_P2;PMS_P1;PMS_P2;Temp;Humidity;BMP_temperature;BMP_pressure;BME280_temperature;BME280_humidity;BME280_pressure;Samples;Min_cycle;Max_cycle;Signal;HPM_P1;HPM_P2
2022/06/28 00:01:40;;;;;;;10.70;9.70;;;;;;;22.75;71.73;100117.22;1785637;78;21084;-81
2022/06/28 00:04:07;;;;;;;9.95;9.05;;;;;;;22.72;72.43;100121.77;1769634;80;21017;-78
2022/06/28 00:06:34;;;;;;;9.93;8.98;;;;;;;22.74;72.23;100121.00;1816179;77;21138;-76
2022/06/28 00:09:01;;;;;;;10.05;9.18;;;;;;;22.83;72.07;100127.70;1789143;80;21029;-78
2022/06/28 00:11:27;;;;;;;9.73;8.45;;;;;;;22.81;72.58;100124.38;1787663;78;21042;-78
2022/06/28 00:13:54;;;;;;;11.60;9.20;;;;;;;22.75;72.53;100123.48;1783746;78;21054;-78
2022/06/28 00:16:20;;;;;;;10.58;9.78;;;;;;;22.70;73.28;100125.25;1804737;78;21541;-78
2022/06/28 00:18:49;;;;;;;11.45;10.32;;;;;;;22.65;73.37;100121.08;1802535;79;21188;-78
2022/06/28 00:21:15;;;;;;;10.20;9.30;;;;;;;22.61;72.69;100115.31;1794878;78;21082;-81
2022/06/28 00:23:43;;;;;;;9.68;8.88;;;;;;;22.61;72.48;100113.14;1803426;78;21116;-77
2022/06/28 00:26:11;;;;;;;9.40;8.60;;;;;;;22.62;72.91;100112.91;1812224;79;21030;-78
2022/06/28 00:28:37;;;;;;;11.10;10.13;;;;;;;22.69;73.28;100110.87;1815375;77;21065;-81
2022/06/28 00:31:06;;;;;;;9.85;8.93;;;;;;;22.69;73.63;100110.87;1808065;78;21891;-81
2022/06/28 00:33:34;;;;;;;17.37;10.63;;;;;;;22.65;73.05;100110.24;1790905;79;21021;-79
2022/06/28 00:36:00;;;;;;;12.07;10.82;;;;;;;22.62;72.87;100105.30;1806248;78;21040;-80
2022/06/28 00:38:27;;;;;;;11.25;10.03;;;;;;;22.63;73.62;100109.66;1815684;78;20998;-79
2022/06/28 00:40:53;;;;;;;12.25;11.03;;;;;;;22.61;73.26;100107.73;1755980;79;21001;-79
2022/06/28 00:43:21;;;;;;;10.58;9.53;;;;;;;22.57;73.41;100106.84;1807576;78;22130;-80
2022/06/28 00:45:48;;;;;;;10.08;9.13;;;;;;;22.61;73.04;100111.78;1809462;78;21017;-78
2022/06/28 00:48:17;;;;;;;11.00;9.63;;;;;;;22.67;73.10;100106.77;1815734;78;21541;-78
2022/06/28 00:50:45;;;;;;;10.03;9.13;;;;;;;22.65;73.41;100104.83;1794157;78;21034;-77
2022/06/28 00:53:16;;;;;;;11.48;10.25;;;;;;;22.60;73.45;100107.41;1799053;78;21029;-77
2022/06/28 00:55:43;;;;;;;11.00;9.90;;;;;;;22.56;73.79;100113.33;1800814;78;21214;-78
2022/06/28 00:58:10;;;;;;;9.93;9.15;;;;;;;22.52;74.37;100112.16;1802232;78;21025;-75
2022/06/28 01:00:41;;;;;;;10.18;8.98;;;;;;;22.54;74.47;100114.09;1813160;78;21096;-74
2022/06/28 01:03:12;;;;;;;10.48;9.50;;;;;;;22.62;74.34;100116.13;1813826;78;21013;-73
2022/06/28 01:05:40;;;;;;;10.38;9.33;;;;;;;22.61;74.32;100110.43;1783405;78;21547;-76
2022/06/28 01:08:06;;;;;;;10.38;9.40;;;;;;;22.56;74.96;100109.27;1777017;78;21345;-76
2022/06/28 01:10:36;;;;;;;9.98;9.18;;;;;;;22.51;75.54;100107.80;1808529;78;21061;-77
2022/06/28 01:13:04;;;;;;;10.58;9.60;;;;;;;22.46;75.18;100109.02;1811447;78;21088;-75
2022/06/28 01:15:31;;;;;;;10.93;8.55;;;;;;;22.44;75.25;100102.22;1801376;78;21541;-75
2022/06/28 01:18:00;;;;;;;11.73;9.70;;;;;;;22.48;75.39;100108.25;1811891;78;21084;-74
2022/06/28 01:20:43;;;;;;;10.72;9.68;;;;;;;22.57;75.27;100105.48;1808147;78;22165;-75
2022/06/28 01:23:16;;;;;;;10.32;9.43;;;;;;;22.55;75.75;100095.96;1763702;79;21018;-74
2022/06/28 01:25:44;;;;;;;10.65;9.70;;;;;;;22.48;76.04;100102.84;1767733;79;21120;-73
2022/06/28 01:28:12;;;;;;;10.95;9.95;;;;;;;22.41;75.77;100096.75;1769531;78;21501;-75
2022/06/28 01:30:39;;;;;;;10.18;9.28;;;;;;;22.39;75.72;100101.59;1823050;77;21090;-77
2022/06/28 01:33:08;;;;;;;10.82;9.83;;;;;;;22.44;75.55;100101.67;1817072;77;21118;-76
2022/06/28 01:35:34;;;;;;;11.55;10.43;;;;;;;22.53;75.66;100096.73;1788804;78;21060;-77
2022/06/28 01:38:02;;;;;;;10.53;9.53;;;;;;;22.54;75.55;100100.56;1779678;78;21033;-76
2022/06/28 01:40:29;;;;;;;10.95;9.95;;;;;;;22.51;75.82;100096.97;1805725;78;21562;-77
2022/06/28 01:42:55;;;;;;;11.48;10.45;;;;;;;22.48;75.70;100098.78;1828617;77;21080;-76
2022/06/28 01:45:24;;;;;;;10.15;9.28;;;;;;;22.44;76.05;100097.61;1827504;77;21124;-79
2022/06/28 01:47:50;;;;;;;11.45;9.08;;;;;;;22.44;76.50;100094.09;1787225;78;20974;-76
2022/06/28 01:50:37;;;;;;;9.53;8.70;;;;;;;22.49;76.35;100097.73;1785367;80;21081;-78
2022/06/28 01:53:05;;;;;;;10.65;9.75;;;;;;;22.43;75.99;100096.52;1756016;80;21096;-78
2022/06/28 01:55:32;;;;;;;11.08;9.98;;;;;;;22.42;75.95;100098.39;1770189;79;21044;-77
2022/06/28 01:58:01;;;;;;;11.10;10.10;;;;;;;22.40;76.07;100092.39;1779576;80;21150;-75
2022/06/28 02:00:31;;;;;;;11.20;10.08;;;;;;;22.33;76.03;100096.59;1782370;78;21333;-77
2022/06/28 02:02:58;;;;;;;10.35;9.55;;;;;;;22.28;76.68;100098.35;1799014;78;21013;-78
2022/06/28 02:05:41;;;;;;;11.10;10.08;;;;;;;22.29;76.60;100098.63;1804934;79;21002;-77
2022/06/28 02:08:10;;;;;;;11.05;10.15;;;;;;;22.37;76.24;100098.30;1781738;80;21769;-74
2022/06/28 02:10:59;;;;;;;11.83;10.63;;;;;;;22.37;76.25;100092.88;1792613;79;21029;-75
2022/06/28 02:13:28;;;;;;;11.53;10.53;;;;;;;22.34;76.23;100091.45;1808969;78;20994;-75
2022/06/28 02:15:55;;;;;;;11.60;10.45;;;;;;;22.31;76.64;100097.86;1802294;78;21048;-77
2022/06/28 02:18:23;;;;;;;11.38;10.28;;;;;;;22.26;76.40;100094.53;1802287;78;21581;-74
2022/06/28 02:20:50;;;;;;;11.28;10.18;;;;;;;22.29;76.28;100090.00;1814093;78;21080;-74
2022/06/28 02:23:16;;;;;;;11.33;10.20;;;;;;;22.34;76.14;100092.80;1815936;78;22104;-76
2022/06/28 02:25:43;;;;;;;11.93;10.70;;;;;;;22.29;76.47;100094.57;1816167;78;21009;-76
2022/06/28 02:28:09;;;;;;;11.78;10.55;;;;;;;22.22;76.83;100090.62;1821441;78;21108;-75
2022/06/28 02:30:36;;;;;;;11.90;10.75;;;;;;;22.21;76.46;100096.27;1824986;78;20998;-74
2022/06/28 02:33:03;;;;;;;11.25;10.28;;;;;;;22.19;76.85;100090.57;1809742;78;21111;-77
2022/06/28 02:41:00;;;;;;;12.30;11.00;;;;;;;22.33;76.56;100088.47;1777737;80;21025;-78
2022/06/28 02:43:26;;;;;;;11.18;10.18;;;;;;;22.31;76.90;100084.33;1786885;78;21005;-76
2022/06/28 02:45:53;;;;;;;11.80;10.65;;;;;;;22.28;76.83;100082.94;1810049;78;21021;-73
2022/06/28 02:48:20;;;;;;;13.22;11.15;;;;;;;22.28;76.67;100091.59;1816755;78;21234;-77
2022/06/28 02:50:50;;;;;;;10.82;9.93;;;;;;;22.33;77.01;100093.88;1801824;78;20998;-77
2022/06/28 02:53:16;;;;;;;10.85;9.83;;;;;;;22.44;76.51;100091.39;1772187;80;21556;-76
2022/06/28 02:55:43;;;;;;;10.90;9.90;;;;;;;22.47;76.51;100094.98;1815999;78;21085;-77
2022/06/28 02:58:09;;;;;;;12.23;10.65;;;;;;;22.47;76.76;100097.16;1806408;78;21088;-76
2022/06/28 03:00:35;;;;;;;11.78;10.78;;;;;;;22.45;77.18;100096.56;1771881;80;21520;-75
2022/06/28 03:03:03;;;;;;;12.60;10.82;;;;;;;22.43;77.04;100097.34;1777429;80;20986;-77
2022/06/28 03:05:30;;;;;;;10.70;9.70;;;;;;;22.42;76.72;100090.27;1794306;77;21085;-75
2022/06/28 03:07:56;;;;;;;10.75;9.83;;;;;;;22.48;76.76;100095.27;1764360;80;20998;-76
2022/06/28 03:10:25;;;;;;;14.47;10.00;;;;;;;22.58;76.90;100084.66;1771572;79;21018;-75
2022/06/28 03:12:52;;;;;;;12.15;10.85;;;;;;;22.63;76.33;100086.64;1809851;78;21528;-74
2022/06/28 03:15:18;;;;;;;14.38;13.05;;;;;;;22.66;76.93;100082.94;1806658;79;21467;-75
2022/06/28 03:17:46;;;;;;;13.40;12.20;;;;;;;22.70;76.73;100087.34;1792251;78;21037;-76
2022/06/28 03:20:12;;;;;;;13.72;11.83;;;;;;;22.76;76.76;100081.77;1788671;80;21009;-72
2022/06/28 03:22:39;;;;;;;12.78;11.55;;;;;;;22.88;77.51;100080.38;1792165;79;21508;-76
2022/06/28 03:25:07;;;;;;;12.95;11.83;;;;;;;23.04;77.27;100091.00;1792035;79;21732;-76
2022/06/28 03:27:35;;;;;;;14.50;13.13;;;;;;;23.11;77.17;100086.27;1802764;79;21524;-76
2022/06/28 03:30:04;;;;;;;13.98;12.45;;;;;;;23.15;77.06;100088.78;1811155;78;21042;-76
2022/06/28 03:32:32;;;;;;;14.58;13.20;;;;;;;23.22;77.12;100091.87;1816442;77;20998;-78
2022/06/28 03:35:01;;;;;;;34.10;30.92;;;;;;;23.26;77.15;100092.52;1796931;77;21042;-76
2022/06/28 03:37:28;;;;;;;15.60;14.28;;;;;;;23.37;77.07;100089.43;1809033;78;21539;-76
2022/06/28 03:39:56;;;;;;;14.10;12.93;;;;;;;23.53;76.74;100087.83;1806226;77;21057;-76
2022/06/28 03:42:23;;;;;;;14.23;12.95;;;;;;;23.60;76.43;100093.08;1812686;77;20982;-76
2022/06/28 03:44:51;;;;;;;13.35;12.13;;;;;;;23.64;76.44;100088.30;1778013;78;20998;-76
2022/06/28 03:47:18;;;;;;;13.03;11.78;;;;;;;23.67;76.35;100087.78;1822619;78;21078;-74
2022/06/28 03:50:03;;;;;;;12.85;11.53;;;;;;;23.70;76.13;100089.17;1782506;79;21203;-75
2022/06/28 03:52:44;;;;;;;13.95;12.65;;;;;;;23.83;76.14;100094.84;1803313;78;21006;-75
2022/06/28 03:55:13;;;;;;;13.98;12.28;;;;;;;23.93;75.95;100095.84;1800006;78;21595;-73
2022/06/28 03:57:44;;;;;;;14.18;12.88;;;;;;;23.96;75.74;100097.22;1799176;78;20994;-75
2022/06/28 04:00:13;;;;;;;14.55;12.95;;;;;;;23.99;75.79;100097.25;1789197;79;21018;-74
2022/06/28 04:02:43;;;;;;;13.72;12.53;;;;;;;24.06;75.52;100094.66;1779303;79;21637;-75
2022/06/28 04:05:12;;;;;;;12.70;11.53;;;;;;;24.10;75.29;100091.73;1791703;80;21028;-74
2022/06/28 04:07:39;;;;;;;12.37;11.30;;;;;;;24.24;74.99;100092.22;1816599;79;21566;-74
2022/06/28 04:10:08;;;;;;;12.55;11.22;;;;;;;24.39;75.11;100093.49;1772913;79;21087;-74
2022/06/28 04:12:34;;;;;;;12.80;11.48;;;;;;;24.44;74.50;100094.92;1809976;78;21505;-73
2022/06/28 04:15:06;;;;;;;13.10;11.80;;;;;;;24.48;74.12;100092.80;1786745;79;21095;-75
2022/06/28 04:17:33;;;;;;;13.80;12.45;;;;;;;24.57;73.91;100084.24;1772285;79;21522;-74
2022/06/28 04:20:09;;;;;;;12.50;11.45;;;;;;;24.64;73.70;100088.95;1764583;80;21048;-74
2022/06/28 04:22:38;;;;;;;13.48;12.33;;;;;;;24.70;73.43;100086.03;1795903;77;21480;-77
2022/06/28 04:25:05;;;;;;;11.88;10.70;;;;;;;24.77;73.04;100089.94;1796677;78;22651;-78
2022/06/28 04:27:36;;;;;;;12.58;11.48;;;;;;;24.88;72.62;100084.09;1784510;80;21227;-77
2022/06/28 04:30:04;;;;;;;17.02;11.50;;;;;;;25.02;72.31;100077.72;1790238;80;21627;-76
2022/06/28 04:32:33;;;;;;;13.35;12.07;;;;;;;25.08;71.73;100089.73;1779005;79;21022;-77
2022/06/28 04:34:59;;;;;;;11.95;10.75;;;;;;;25.14;71.21;100090.61;1788566;79;21026;-78
2022/06/28 04:37:26;;;;;;;12.80;11.80;;;;;;;25.23;70.93;100090.47;1788849;80;21605;-78
2022/06/28 04:39:53;;;;;;;13.18;11.97;;;;;;;25.33;70.39;100085.67;1766868;80;21107;-78
2022/06/28 04:42:22;;;;;;;13.58;12.30;;;;;;;25.44;69.94;100090.12;1786138;79;21037;-76
2022/06/28 04:44:49;;;;;;;12.75;11.53;;;;;;;25.55;69.42;100080.14;1782479;79;21540;-77
2022/06/28 04:47:17;;;;;;;12.93;11.88;;;;;;;25.67;69.22;100086.77;1772366;78;21046;-78
2022/06/28 04:49:44;;;;;;;13.30;11.73;;;;;;;25.79;69.01;100088.78;1760789;79;20971;-76
2022/06/28 04:52:10;;;;;;;12.80;11.55;;;;;;;25.93;68.94;100086.46;1780641;79;21580;-79
2022/06/28 04:54:39;;;;;;;13.68;10.98;;;;;;;26.06;68.37;100087.37;1770967;79;21079;-77
2022/06/28 04:57:08;;;;;;;12.20;10.75;;;;;;;26.21;67.91;100092.62;1777208;79;21057;-77
2022/06/28 04:59:34;;;;;;;11.33;10.23;;;;;;;26.32;67.70;100088.88;1757310;80;20990;-76
2022/06/28 05:02:03;;;;;;;11.45;10.08;;;;;;;26.45;67.35;100086.23;1769994;79;21194;-76
2022/06/28 05:04:30;;;;;;;13.13;10.00;;;;;;;26.55;67.02;100085.45;1772082;79;21209;-77
2022/06/28 05:07:04;;;;;;;11.93;10.58;;;;;;;26.60;66.79;100084.97;1763644;79;21481;-78
2022/06/28 05:09:30;;;;;;;10.40;9.40;;;;;;;26.64;66.36;100082.53;1770837;79;21490;-77
2022/06/28 05:11:57;;;;;;;10.63;9.65;;;;;;;26.70;65.80;100084.19;1754610;80;21555;-77
2022/06/28 05:14:29;;;;;;;13.88;9.70;;;;;;;26.77;65.15;100087.48;1762600;80;21016;-75
2022/06/28 05:16:56;;;;;;;11.33;10.30;;;;;;;26.84;65.21;100086.67;1763366;79;22456;-76
2022/06/28 05:19:23;;;;;;;11.78;9.63;;;;;;;26.91;65.70;100087.80;1757165;79;21076;-78
2022/06/28 05:21:50;;;;;;;10.55;9.43;;;;;;;26.98;65.01;100080.72;1777015;80;21515;-76
2022/06/28 05:24:17;;;;;;;11.45;9.60;;;;;;;27.04;64.44;100075.55;1768527;78;21049;-76
2022/06/28 05:26:45;;;;;;;10.88;9.85;;;;;;;27.21;64.38;100078.04;1771819;80;21034;-76
2022/06/28 05:29:20;;;;;;;11.55;10.30;;;;;;;27.36;64.88;100073.19;1774487;80;21542;-79
2022/06/28 05:31:46;;;;;;;11.00;9.63;;;;;;;27.43;63.56;100065.56;1791966;80;20989;-78
2022/06/28 05:34:13;;;;;;;10.30;9.35;;;;;;;27.47;64.59;100069.38;1795541;79;21054;-77
2022/06/28 05:36:41;;;;;;;10.48;9.30;;;;;;;27.52;63.31;100064.45;1761385;79;21085;-78
2022/06/28 05:39:09;;;;;;;9.75;8.93;;;;;;;27.59;62.90;100063.09;1777524;79;21137;-78
2022/06/28 05:41:36;;;;;;;9.93;8.98;;;;;;;27.61;62.38;100060.91;1788445;80;22081;-78
2022/06/28 05:44:04;;;;;;;10.10;9.20;;;;;;;27.66;62.21;100060.08;1779622;80;21071;-77
2022/06/28 05:46:32;;;;;;;14.85;8.25;;;;;;;27.69;61.96;100060.09;1774741;79;21636;-77
2022/06/28 05:48:59;;;;;;;8.83;7.75;;;;;;;27.72;61.15;100066.34;1792548;79;21309;-76
2022/06/28 05:51:26;;;;;;;8.88;8.08;;;;;;;27.71;60.90;100062.81;1800754;79;21073;-79
2022/06/28 05:53:53;;;;;;;8.40;7.58;;;;;;;27.72;60.74;100055.43;1806490;78;21901;-79
2022/06/28 05:56:19;;;;;;;9.65;7.55;;;;;;;27.71;60.24;100062.81;1742799;80;21037;-76
2022/06/28 05:58:46;;;;;;;8.53;7.78;;;;;;;27.75;59.75;100061.16;1719375;80;21064;-76
2022/06/28 06:01:12;;;;;;;7.90;7.20;;;;;;;27.78;59.43;100063.91;1759937;80;21508;-77
2022/06/28 06:03:39;;;;;;;7.78;6.90;;;;;;;27.81;59.10;100059.25;1768289;79;21127;-75
2022/06/28 06:06:06;;;;;;;7.30;6.70;;;;;;;27.85;59.07;100068.00;1754762;80;21498;-76
2022/06/28 06:08:35;;;;;;;7.83;7.10;;;;;;;27.89;58.43;100068.82;1762853;81;21479;-76
2022/06/28 06:11:07;;;;;;;7.83;7.12;;;;;;;27.93;58.67;100060.35;1744949;80;21100;-76
2022/06/28 06:13:34;;;;;;;7.08;6.47;;;;;;;28.01;58.39;100072.09;1755294;81;21612;-79
2022/06/28 06:16:01;;;;;;;7.78;7.08;;;;;;;28.07;58.08;100070.15;1752748;81;21119;-77
2022/06/28 06:18:27;;;;;;;8.23;7.42;;;;;;;28.13;57.88;100070.43;1739417;81;21118;-74
2022/06/28 06:20:53;;;;;;;9.10;7.50;;;;;;;28.19;57.79;100062.48;1745607;81;21081;-76
2022/06/28 06:23:20;;;;;;;7.95;7.35;;;;;;;28.27;57.69;100059.73;1743424;80;21051;-74
2022/06/28 06:25:52;;;;;;;9.88;7.65;;;;;;;28.33;57.83;100059.98;1735216;81;21055;-75
2022/06/28 06:28:18;;;;;;;7.95;7.22;;;;;;;28.37;57.85;100059.13;1739169;81;21104;-75
2022/06/28 06:30:45;;;;;;;7.55;6.90;;;;;;;28.46;57.61;100049.83;1742582;81;21492;-75
2022/06/28 06:33:16;;;;;;;7.47;6.87;;;;;;;28.52;56.98;100048.73;1744929;79;21028;-75
2022/06/28 06:36:01;;;;;;;7.28;6.78;;;;;;;28.57;57.43;100047.91;1748422;80;21030;-76
2022/06/28 06:38:28;;;;;;;8.38;7.53;;;;;;;28.62;56.98;100051.41;1747371;81;21021;-75
2022/06/28 06:40:58;;;;;;;7.60;6.40;;;;;;;28.67;56.50;100053.31;1714287;79;21137;-77
2022/06/28 06:43:23;;;;;;;8.48;6.60;;;;;;;28.68;56.77;100052.77;1737884;81;21155;-75
2022/06/28 06:45:53;;;;;;;6.90;6.40;;;;;;;28.69;56.41;100048.39;1798228;79;21018;-75
2022/06/28 06:48:22;;;;;;;7.30;6.53;;;;;;;28.73;56.59;100057.66;1784236;78;21623;-73
2022/06/28 06:50:49;;;;;;;7.03;6.10;;;;;;;28.76;55.85;100061.73;1815879;77;21088;-74
2022/06/28 06:53:16;;;;;;;7.03;6.33;;;;;;;28.78;55.82;100060.38;1774846;80;21081;-75
2022/06/28 06:55:43;;;;;;;7.12;6.53;;;;;;;28.83;55.74;100062.25;1804360;78;21242;-73
2022/06/28 06:58:09;;;;;;;7.15;6.55;;;;;;;28.87;55.36;100055.67;1796481;78;21101;-75
2022/06/28 07:00:36;;;;;;;9.18;6.58;;;;;;;28.88;55.12;100051.30;1806797;78;21528;-76
2022/06/28 07:03:02;;;;;;;7.22;6.72;;;;;;;28.88;55.08;100047.72;1801648;78;21056;-75
2022/06/28 07:05:30;;;;;;;6.87;5.90;;;;;;;28.90;55.00;100049.09;1787196;80;22082;-75
2022/06/28 07:07:57;;;;;;;6.17;5.67;;;;;;;28.93;54.88;100049.88;1808157;78;21072;-75
2022/06/28 07:10:25;;;;;;;6.53;6.00;;;;;;;29.00;54.36;100044.11;1786118;79;21540;-74
2022/06/28 07:12:52;;;;;;;8.10;6.60;;;;;;;29.05;53.34;100041.32;1813039;78;21065;-74
2022/06/28 07:15:19;;;;;;;6.12;5.62;;;;;;;29.09;53.51;100042.94;1803760;78;21049;-73
2022/06/28 07:17:46;;;;;;;9.28;5.75;;;;;;;29.13;53.35;100042.14;1765051;80;21556;-73
2022/06/28 07:20:13;;;;;;;6.00;5.40;;;;;;;29.15;53.42;100041.30;1802291;78;21548;-74
2022/06/28 07:22:39;;;;;;;6.22;5.72;;;;;;;29.19;53.25;100047.02;1769782;78;21037;-76
2022/06/28 07:25:09;;;;;;;5.50;5.10;;;;;;;29.23;53.18;100042.61;1802839;78;21089;-68
2022/06/28 07:27:36;;;;;;;6.37;5.87;;;;;;;29.31;52.54;100049.39;1809811;78;21486;-70
2022/06/28 07:30:03;;;;;;;7.25;5.60;;;;;;;29.36;52.21;100054.28;1820241;78;21033;-71
2022/06/28 07:32:31;;;;;;;7.47;6.00;;;;;;;29.41;52.36;100054.78;1816945;78;21134;-71
2022/06/28 07:34:57;;;;;;;6.35;5.78;;;;;;;29.46;52.24;100052.01;1754551;80;21108;-70
2022/06/28 07:37:24;;;;;;;6.05;5.45;;;;;;;29.51;51.90;100057.98;1769318;79;21458;-70
2022/06/28 07:39:51;;;;;;;6.20;5.70;;;;;;;29.54;51.90;100055.48;1787968;80;21056;-70
2022/06/28 07:42:36;;;;;;;6.47;5.97;;;;;;;29.60;52.03;100058.44;1765675;80;21525;-71
2022/06/28 07:45:21;;;;;;;6.33;5.83;;;;;;;29.68;51.53;100057.00;1785145;78;21098;-70
2022/06/28 07:47:49;;;;;;;7.00;6.40;;;;;;;29.72;51.80;100048.51;1801058;78;21018;-70
2022/06/28 07:53:05;;;;;;;7.17;6.00;;;;;;;29.84;51.52;100045.38;1797129;78;21089;-71
2022/06/28 07:55:35;;;;;;;9.65;6.53;;;;;;;29.92;51.18;100055.72;1807884;78;21042;-72
2022/06/28 07:58:03;;;;;;;7.70;6.62;;;;;;;29.98;50.92;100058.67;1795058;78;21195;-71
2022/06/28 08:00:31;;;;;;;7.25;6.62;;;;;;;30.05;50.83;100061.05;1798817;79;21109;-70
2022/06/28 08:03:15;;;;;;;6.85;6.08;;;;;;;30.11;51.11;100061.81;1790528;78;21114;-70
2022/06/28 08:05:42;;;;;;;7.50;6.83;;;;;;;30.19;50.84;100059.27;1768783;79;21084;-70
2022/06/28 08:08:09;;;;;;;17.10;6.72;;;;;;;30.29;50.77;100051.48;1809863;77;21005;-70
2022/06/28 08:10:37;;;;;;;9.15;6.15;;;;;;;30.40;50.36;100050.81;1818619;78;21530;-72
2022/06/28 08:13:05;;;;;;;7.30;6.47;;;;;;;30.52;50.50;100053.97;1815638;77;21072;-70
2022/06/28 08:15:32;;;;;;;6.67;6.08;;;;;;;30.66;50.14;100051.31;1808242;78;21053;-72
2022/06/28 08:17:58;;;;;;;6.50;5.95;;;;;;;30.80;49.75;100053.33;1799560;78;21014;-70
2022/06/28 08:20:26;;;;;;;6.58;5.90;;;;;;;30.90;49.51;100054.58;1799470;78;21037;-70
2022/06/28 08:22:52;;;;;;;6.80;6.20;;;;;;;31.01;49.52;100051.15;1803580;78;21148;-71
2022/06/28 08:25:20;;;;;;;6.95;6.35;;;;;;;31.10;49.57;100044.69;1783738;79;21010;-72
2022/06/28 08:27:47;;;;;;;7.08;6.47;;;;;;;31.21;49.23;100047.27;1786617;80;21101;-71
2022/06/28 08:30:13;;;;;;;6.80;6.12;;;;;;;31.30;48.76;100045.48;1774139;78;21124;-71
2022/06/28 08:32:41;;;;;;;8.13;7.40;;;;;;;31.36;48.71;100043.71;1811058;77;21100;-70
2022/06/28 08:35:09;;;;;;;7.25;6.75;;;;;;;31.44;48.63;100036.72;1786776;77;21113;-70
2022/06/28 08:37:35;;;;;;;7.30;6.70;;;;;;;31.46;51.74;100033.14;1794361;78;21069;-72
2022/06/28 08:40:05;;;;;;;6.47;5.95;;;;;;;31.50;49.45;100043.78;1782183;78;21056;-72
2022/06/28 08:42:34;;;;;;;6.90;6.40;;;;;;;31.58;48.23;100040.09;1779121;78;21032;-70
2022/06/28 08:45:01;;;;;;;7.03;6.33;;;;;;;31.71;48.10;100042.06;1801879;79;21032;-72
2022/06/28 08:47:33;;;;;;;7.15;6.45;;;;;;;31.86;47.85;100041.78;1802767;78;21083;-71
2022/06/28 08:50:17;;;;;;;7.05;6.45;;;;;;;32.05;47.86;100034.06;1769491;78;21045;-72
2022/06/28 08:52:43;;;;;;;6.83;6.20;;;;;;;32.25;47.81;100043.25;1775817;80;21539;-70
2022/06/28 08:55:10;;;;;;;7.50;6.75;;;;;;;32.41;46.67;100031.37;1774787;80;21535;-70
2022/06/28 08:57:37;;;;;;;6.80;6.20;;;;;;;32.58;46.45;100029.97;1763399;80;21048;-70
2022/06/28 09:02:55;;;;;;;7.25;6.62;;;;;;;33.05;45.55;100037.41;1836976;75;22613;-72
2022/06/28 09:05:23;;;;;;;7.55;6.35;;;;;;;33.14;45.13;100031.45;1816646;77;21002;-71
2022/06/28 09:07:51;;;;;;;7.90;7.10;;;;;;;33.33;44.75;100025.77;1815563;77;21126;-70
2022/06/28 09:10:18;;;;;;;7.10;6.40;;;;;;;33.52;44.23;100028.31;1811235;78;21505;-71
2022/06/28 09:12:54;;;;;;;7.30;6.65;;;;;;;33.73;44.23;100025.03;1810257;77;21111;-67
2022/06/28 09:15:16;;;;;;;7.28;6.75;;;;;;;33.95;44.08;100024.17;1803768;78;21017;-69
2022/06/28 09:17:43;;;;;;;6.55;6.00;;;;;;;34.18;43.53;100020.80;1815009;78;21002;-73
2022/06/28 09:20:10;;;;;;;7.62;6.75;;;;;;;34.34;43.29;100018.41;1806948;77;21101;-74
2022/06/28 09:22:43;;;;;;;6.72;6.08;;;;;;;34.45;43.63;100028.01;1815499;77;20981;-75
2022/06/28 09:25:14;;;;;;;7.60;7.00;;;;;;;34.65;42.85;100017.74;1819917;77;21080;-75
2022/06/28 09:27:42;;;;;;;7.30;6.70;;;;;;;34.77;42.62;100027.33;1804783;78;20990;-74
2022/06/28 09:30:11;;;;;;;6.33;5.83;;;;;;;35.01;42.40;100026.86;1824625;78;21072;-74
2022/06/28 09:32:39;;;;;;;9.15;6.70;;;;;;;35.34;41.51;100020.84;1817975;77;21215;-76
2022/06/28 09:35:11;;;;;;;6.85;6.30;;;;;;;35.76;41.37;100010.04;1804681;77;21010;-76
2022/06/28 09:40:16;;;;;;;8.08;6.17;;;;;;;36.47;40.17;100013.52;1768536;77;21103;-74
2022/06/28 09:42:46;;;;;;;7.20;6.50;;;;;;;36.77;39.64;100007.94;1818768;77;21580;-74
2022/06/28 09:45:15;;;;;;;6.37;5.83;;;;;;;37.11;39.21;100002.67;1800205;77;21805;-74
2022/06/28 09:47:48;;;;;;;7.05;6.45;;;;;;;37.46;39.33;100001.54;1824139;78;20998;-72
2022/06/28 09:50:20;;;;;;;6.58;6.08;;;;;;;37.77;38.59;99992.72;1822445;77;21032;-74
2022/06/28 09:52:48;;;;;;;8.78;6.20;;;;;;;38.18;37.88;99996.43;1815233;78;21030;-76
2022/06/28 09:55:15;;;;;;;6.55;6.05;;;;;;;38.47;38.00;99986.21;1798759;77;21600;-76
2022/06/28 09:57:44;;;;;;;7.15;6.22;;;;;;;38.83;38.36;99989.48;1804011;77;21850;-74
2022/06/28 10:00:15;;;;;;;8.08;6.40;;;;;;;39.25;37.45;99979.37;1822470;78;21061;-75
2022/06/28 10:02:42;;;;;;;6.83;5.83;;;;;;;39.57;36.71;99980.80;1809386;77;21044;-75
2022/06/28 10:05:11;;;;;;;6.60;5.97;;;;;;;39.84;35.28;99973.52;1805194;78;21017;-75
2022/06/28 10:07:39;;;;;;;7.08;6.58;;;;;;;40.01;35.61;99977.13;1801836;78;21026;-75
2022/06/28 10:10:08;;;;;;;7.08;6.28;;;;;;;40.21;34.76;99973.20;1801276;78;21142;-73
2022/06/28 10:15:27;;;;;;;6.40;5.83;;;;;;;40.63;34.22;99962.81;1813684;77;21190;-75
2022/06/28 10:18:16;;;;;;;6.72;6.22;;;;;;;40.75;34.40;99955.48;1801457;78;21583;-74
2022/06/28 10:20:46;;;;;;;6.45;5.80;;;;;;;40.87;34.17;99958.92;1799508;77;21065;-74
2022/06/28 10:23:28;;;;;;;6.93;6.03;;;;;;;40.98;33.84;99959.14;1812293;77;21070;-75
2022/06/28 10:26:19;;;;;;;6.80;5.95;;;;;;;41.12;34.08;99961.39;1818950;78;21001;-77
2022/06/28 10:28:56;;;;;;;8.50;5.85;;;;;;;41.30;34.05;99958.14;1810359;78;21033;-78
2022/06/28 10:31:31;;;;;;;8.80;6.53;;;;;;;41.56;34.06;99952.63;1794883;78;21104;-74
2022/06/28 10:34:08;;;;;;;7.15;6.05;;;;;;;41.70;34.11;99952.08;1807121;77;21096;-75
2022/06/28 10:36:53;;;;;;;7.00;6.30;;;;;;;42.12;32.95;99948.35;1816786;78;21103;-77
2022/06/28 10:39:29;;;;;;;6.45;6.00;;;;;;;42.12;32.95;99948.35;1818077;77;21029;-76
2022/06/28 10:42:06;;;;;;;6.17;5.67;;;;;;;42.15;33.00;99953.76;1815578;78;21032;-76
2022/06/28 10:44:38;;;;;;;6.75;6.25;;;;;;;42.20;32.27;99953.44;1740396;81;21055;-74
2022/06/28 10:47:10;;;;;;;6.70;6.10;;;;;;;42.35;32.11;99955.24;1783675;78;21509;-77
2022/06/28 10:49:52;;;;;;;6.60;6.00;;;;;;;42.56;32.77;99946.36;1767878;80;21173;-76
2022/06/28 10:52:26;;;;;;;7.35;6.62;;;;;;;42.86;31.80;99939.91;1763773;80;21017;-76
2022/06/28 10:54:58;;;;;;;6.22;5.62;;;;;;;43.07;31.68;99947.73;1771386;80;21497;-74
2022/06/28 10:57:34;;;;;;;6.35;5.85;;;;;;;43.30;32.28;99946.79;1750562;80;21065;-76
2022/06/28 11:00:11;;;;;;;6.15;5.65;;;;;;;43.66;31.07;99946.49;1778625;80;21612;-76
2022/06/28 11:02:56;;;;;;;6.97;6.17;;;;;;;43.78;30.79;99945.41;1752961;80;21325;-75
2022/06/28 11:05:45;;;;;;;6.47;5.97;;;;;;;43.89;30.93;99941.26;1764591;80;21120;-75
2022/06/28 11:08:30;;;;;;;5.92;5.53;;;;;;;44.19;30.98;99933.28;1758311;80;21053;-81
2022/06/28 11:11:02;;;;;;;6.25;5.67;;;;;;;44.46;30.52;99929.59;1702612;80;21021;-78
2022/06/28 11:13:29;;;;;;;6.47;5.97;;;;;;;44.61;30.08;99931.88;1770521;80;21069;-84
2022/06/28 11:15:56;;;;;;;6.45;5.87;;;;;;;44.74;29.83;99929.72;1740293;80;21804;-83
2022/06/28 11:18:26;;;;;;;6.35;5.75;;;;;;;44.86;29.83;99923.54;1751092;80;21104;-86
2022/06/28 11:20:53;;;;;;;6.40;5.90;;;;;;;45.01;29.70;99923.80;1771605;79;21560;-85
2022/06/28 11:23:28;;;;;;;6.33;5.75;;;;;;;45.10;29.34;99921.38;1769186;78;21084;-83
2022/06/28 11:28:56;;;;;;;5.50;5.05;;;;;;;45.12;29.21;99921.78;1748359;81;21275;-85
2022/06/28 11:31:25;;;;;;;5.45;5.05;;;;;;;45.19;29.26;99923.80;1784248;78;21042;-84
2022/06/28 11:33:52;;;;;;;6.05;5.45;;;;;;;45.22;28.63;99914.57;1755663;80;21044;-85
2022/06/28 11:36:33;;;;;;;5.90;5.40;;;;;;;45.13;29.28;99914.19;1729847;81;21184;-85
2022/06/28 11:39:20;;;;;;;6.05;5.58;;;;;;;45.23;29.00;99911.19;1761335;79;21069;-79
2022/06/28 11:41:48;;;;;;;6.08;5.67;;;;;;;45.36;29.23;99911.02;1753953;79;21303;-80
2022/06/28 11:44:15;;;;;;;6.10;5.60;;;;;;;45.59;29.29;99913.98;1765294;79;20929;-80
2022/06/28 11:46:41;;;;;;;6.00;5.50;;;;;;;45.90;28.57;99911.77;1707803;81;21041;-79
2022/06/28 11:49:08;;;;;;;5.72;5.33;;;;;;;46.10;28.66;99907.91;1778365;80;21054;-80